City Of Long Beach — WDC5007 — position and weather

sailwx.info

Track history (hours):
 
Tides and Currents Weather Stations Pressure Air Temp Water Temp Dewpoint Dewpoint Depression Visibility Wind Speed Wind Dir Waves Ship Positions

City Of Long Beach

Owner: Long Beach Anglers, Inc., Long Beach, CA. More information available from US FCC via Universal Licensing System and Coast Guard Vessel Documentation Center.

Last reported at 2018-Jan-04 21:55 UTC. Time now 2018-Jan-18 15:18 UTC.
Position N 33°38' W 118°13'.
Warning: this ship's position is 13 days out of date.

Type: Ship. MMSI: 367034320.

Date/timePositionNaut miles runAvg speedWind from/ knotsBaromVisibWave heightAir tempDewpointWater temp
2018-Jan-04 21:55N 33°38' W 118°13'2 4.1
2018-Jan-04 21:22N 33°37' W 118°10'0 0.2
2018-Jan-04 20:57N 33°37' W 118°10'2 3.4
2018-Jan-04 20:28N 33°38' W 118°08'0 0.0
2018-Jan-04 20:00N 33°38' W 118°08'0 0.0
2018-Jan-04 19:25N 33°38' W 118°08'4 0.1
2018-Jan-02 23:15N 33°42' W 118°09'2 7.2
2018-Jan-02 22:59N 33°41' W 118°08'2 0.4
2018-Jan-02 18:32N 33°42' W 118°09'  
2017-Dec-30 16:31N 33°35' W 118°10'4 0.2
2017-Dec-29 20:03N 33°38' W 118°13'0 5.8
2017-Dec-29 20:00N 33°38' W 118°13'0 0.3
2017-Dec-29 19:19N 33°38' W 118°13'  
Track history (hours):
 
Tides and Currents Weather Stations Pressure Air Temp Water Temp Dewpoint Dewpoint Depression Visibility Wind Speed Wind Dir Waves Ship Positions

City Of Long Beach

Owner: Long Beach Anglers, Inc., Long Beach, CA. More information available from US FCC via Universal Licensing System and Coast Guard Vessel Documentation Center.

Last reported at 2018-Jan-04 21:55 UTC. Time now 2018-Jan-18 15:18 UTC.
Position N 33°38' W 118°13'.
Warning: this ship's position is 13 days out of date.

Type: Ship. MMSI: 367034320.

Date/timePositionNaut miles runAvg speedWind from/ knotsBaromVisibWave heightAir tempDewpointWater temp
2018-Jan-04 21:55N 33°38' W 118°13'2 4.1
2018-Jan-04 21:22N 33°37' W 118°10'0 0.2
2018-Jan-04 20:57N 33°37' W 118°10'2 3.4
2018-Jan-04 20:28N 33°38' W 118°08'0 0.0
2018-Jan-04 20:00N 33°38' W 118°08'0 0.0
2018-Jan-04 19:25N 33°38' W 118°08'4 0.1
2018-Jan-02 23:15N 33°42' W 118°09'2 7.2
2018-Jan-02 22:59N 33°41' W 118°08'2 0.4
2018-Jan-02 18:32N 33°42' W 118°09'  
2017-Dec-30 16:31N 33°35' W 118°10'4 0.2
2017-Dec-29 20:03N 33°38' W 118°13'0 5.8
2017-Dec-29 20:00N 33°38' W 118°13'0 0.3
2017-Dec-29 19:19N 33°38' W 118°13'  

Dump ship's entire track history